createdAt,value
2023-04-27T00:02:08.563Z,15.30
2023-04-27T00:04:35.781Z,15.40
2023-04-27T00:07:02.742Z,15.20
2023-04-27T00:09:29.553Z,15.20
2023-04-27T00:11:56.298Z,15.20
2023-04-27T00:14:23.129Z,15.20
2023-04-27T00:16:50.114Z,15.10
2023-04-27T00:19:17.166Z,15.10
2023-04-27T00:21:43.968Z,15.00
2023-04-27T00:24:10.808Z,15.10
2023-04-27T00:26:37.573Z,15.10
2023-04-27T00:29:04.423Z,15.00
2023-04-27T00:31:31.215Z,15.00
2023-04-27T00:33:57.954Z,14.90
2023-04-27T00:36:24.804Z,14.90
2023-04-27T00:38:51.644Z,15.00
2023-04-27T00:41:18.460Z,14.90
2023-04-27T00:43:46.420Z,14.90
2023-04-27T00:46:14.195Z,14.90
2023-04-27T00:48:41.857Z,14.90
2023-04-27T00:51:08.733Z,14.90
2023-04-27T00:53:37.557Z,14.70
2023-04-27T00:56:07.843Z,14.80
2023-04-27T00:58:34.682Z,14.80
2023-04-27T01:01:01.554Z,14.70
2023-04-27T01:03:28.687Z,14.70
2023-04-27T01:05:56.888Z,14.70
2023-04-27T01:08:23.758Z,14.70
2023-04-27T01:10:50.802Z,14.70
2023-04-27T01:13:17.816Z,14.60
2023-04-27T01:15:44.585Z,14.60
2023-04-27T01:18:11.437Z,14.60
2023-04-27T01:20:38.845Z,14.50
2023-04-27T01:23:06.343Z,14.50
2023-04-27T01:25:33.265Z,14.50
2023-04-27T01:28:00.163Z,14.40
2023-04-27T01:30:28.595Z,14.40
2023-04-27T01:32:56.458Z,14.40
2023-04-27T01:35:23.345Z,14.40
2023-04-27T01:37:50.940Z,14.30
2023-04-27T01:40:18.365Z,14.20
2023-04-27T01:42:45.159Z,14.20
2023-04-27T01:45:12.176Z,14.30
2023-04-27T01:47:39.154Z,14.20
2023-04-27T01:50:06.461Z,14.20
2023-04-27T01:52:33.250Z,14.20
2023-04-27T01:55:00.018Z,14.20
2023-04-27T01:57:26.874Z,14.10
2023-04-27T01:59:53.616Z,14.00
2023-04-27T02:02:22.032Z,14.10
2023-04-27T02:04:49.060Z,14.00
2023-04-27T02:07:15.976Z,13.90
2023-04-27T02:09:43.094Z,13.90
2023-04-27T02:12:09.834Z,13.90
2023-04-27T02:14:36.576Z,13.90
2023-04-27T02:17:03.619Z,13.80
2023-04-27T02:19:30.578Z,13.70
2023-04-27T02:21:57.502Z,13.80
2023-04-27T02:24:24.292Z,13.80
2023-04-27T02:26:51.090Z,13.70
2023-04-27T02:29:18.575Z,13.70
2023-04-27T02:31:46.543Z,13.70
2023-04-27T02:34:13.377Z,13.60
2023-04-27T02:36:40.357Z,13.60
2023-04-27T02:39:07.149Z,13.60
2023-04-27T02:41:33.972Z,13.60
2023-04-27T02:44:00.747Z,13.50
2023-04-27T02:46:27.653Z,13.50
2023-04-27T02:48:55.853Z,13.60
2023-04-27T02:51:22.773Z,13.50
2023-04-27T02:53:49.620Z,13.60
2023-04-27T02:56:16.700Z,13.50
2023-04-27T02:58:44.909Z,13.50
2023-04-27T03:01:12.002Z,13.40
2023-04-27T03:03:39.046Z,13.40
2023-04-27T03:06:06.460Z,13.40
2023-04-27T03:08:33.276Z,13.50
2023-04-27T03:11:00.041Z,13.40
2023-04-27T03:13:26.869Z,13.40
2023-04-27T03:15:53.632Z,13.40
2023-04-27T03:18:20.491Z,13.30
2023-04-27T03:20:47.333Z,13.30
2023-04-27T03:23:14.143Z,13.30
2023-04-27T03:25:40.884Z,13.30
2023-04-27T03:28:07.669Z,13.20
2023-04-27T03:30:34.419Z,13.20
2023-04-27T03:33:01.428Z,13.20
2023-04-27T03:35:28.221Z,13.20
2023-04-27T03:37:55.027Z,13.10
2023-04-27T03:40:21.981Z,13.10
2023-04-27T03:42:48.804Z,13.10
2023-04-27T03:45:16.728Z,13.10
2023-04-27T03:47:43.539Z,13.10
2023-04-27T03:50:10.527Z,13.10
2023-04-27T03:52:37.473Z,13.00
2023-04-27T03:55:05.138Z,13.10
2023-04-27T03:57:32.005Z,13.00
2023-04-27T03:59:58.900Z,13.00
2023-04-27T04:02:25.928Z,13.00
2023-04-27T04:04:53.051Z,12.90
2023-04-27T04:07:20.244Z,13.00
2023-04-27T04:09:47.047Z,12.90
2023-04-27T04:12:13.842Z,12.90
2023-04-27T04:14:40.588Z,12.80
2023-04-27T04:17:10.977Z,12.80
2023-04-27T04:19:37.949Z,12.80
2023-04-27T04:22:04.981Z,12.80
2023-04-27T04:24:31.758Z,12.80
2023-04-27T04:26:58.897Z,12.80
2023-04-27T04:29:25.919Z,12.80
2023-04-27T04:31:52.998Z,12.80
2023-04-27T04:34:20.134Z,12.70
2023-04-27T04:36:47.112Z,12.80
2023-04-27T04:39:14.618Z,12.80
2023-04-27T04:41:42.197Z,12.80
2023-04-27T04:44:09.072Z,12.80
2023-04-27T04:46:37.498Z,12.80
2023-04-27T04:49:04.762Z,12.80
2023-04-27T04:51:31.776Z,12.80
2023-04-27T04:54:01.100Z,12.90
2023-04-27T04:56:28.676Z,12.90
2023-04-27T04:58:55.633Z,12.90
2023-04-27T05:01:22.539Z,13.00
2023-04-27T05:03:49.562Z,12.90
2023-04-27T05:06:16.440Z,13.00
2023-04-27T05:08:43.228Z,13.00
2023-04-27T05:11:10.108Z,13.00
2023-04-27T05:13:38.373Z,13.00
2023-04-27T05:16:06.727Z,13.00
2023-04-27T05:18:34.692Z,13.00
2023-04-27T05:21:01.610Z,13.10
2023-04-27T05:23:28.459Z,13.00
2023-04-27T05:25:55.254Z,13.00
2023-04-27T05:28:22.150Z,13.10
2023-04-27T05:30:49.000Z,13.20
2023-04-27T05:33:15.851Z,13.20
2023-04-27T05:35:42.729Z,13.20
2023-04-27T05:38:09.533Z,13.40
2023-04-27T05:40:36.414Z,13.60
2023-04-27T05:43:05.601Z,13.70
2023-04-27T05:45:32.854Z,13.70
2023-04-27T05:47:59.738Z,13.80
2023-04-27T05:50:26.566Z,13.70
2023-04-27T05:52:53.313Z,13.80
2023-04-27T05:55:20.191Z,13.80
2023-04-27T05:57:51.718Z,13.90
2023-04-27T06:00:25.290Z,13.90
2023-04-27T06:02:52.101Z,13.90
2023-04-27T06:05:19.111Z,14.10
2023-04-27T06:07:46.198Z,14.10
2023-04-27T06:10:13.221Z,14.10
2023-04-27T06:12:39.968Z,14.10
2023-04-27T06:15:10.461Z,14.10
2023-04-27T06:17:38.608Z,14.10
2023-04-27T06:20:09.358Z,14.10
2023-04-27T06:22:39.487Z,14.10
2023-04-27T06:25:06.895Z,14.10
2023-04-27T06:27:34.674Z,14.10
2023-04-27T06:30:01.505Z,14.10
2023-04-27T06:32:28.254Z,14.20
2023-04-27T06:34:55.011Z,14.20
2023-04-27T06:37:21.863Z,14.30
2023-04-27T06:39:48.620Z,14.20
2023-04-27T06:42:15.466Z,14.30
2023-04-27T06:44:42.205Z,14.40
2023-04-27T06:47:09.387Z,14.40
2023-04-27T06:49:36.147Z,14.40
2023-04-27T06:52:03.213Z,14.40
2023-04-27T06:54:30.021Z,14.60
2023-04-27T06:56:56.821Z,14.60
2023-04-27T06:59:23.783Z,14.60
2023-04-27T07:01:50.538Z,14.80
2023-04-27T07:04:17.495Z,14.90
2023-04-27T07:06:44.303Z,14.90
2023-04-27T07:09:24.034Z,15.00
2023-04-27T07:11:53.693Z,15.10
2023-04-27T07:14:20.649Z,15.30
2023-04-27T07:16:47.785Z,15.50
2023-04-27T07:19:14.796Z,15.70
2023-04-27T07:21:41.971Z,15.90
2023-04-27T07:24:08.955Z,16.20
2023-04-27T07:26:36.574Z,16.50
2023-04-27T07:29:11.185Z,16.90
2023-04-27T07:31:41.741Z,17.20
2023-04-27T07:34:08.567Z,17.50
2023-04-27T07:36:35.421Z,18.00
2023-04-27T07:39:02.397Z,18.30
2023-04-27T07:41:29.139Z,18.60
2023-04-27T07:43:57.952Z,18.90
2023-04-27T07:46:26.387Z,19.20
2023-04-27T07:48:55.152Z,19.40
2023-04-27T07:51:22.234Z,19.60
2023-04-27T07:53:49.121Z,20.00
2023-04-27T07:56:16.266Z,20.20
2023-04-27T07:58:43.689Z,20.60
2023-04-27T08:01:10.563Z,20.90
2023-04-27T08:03:37.636Z,21.00
2023-04-27T08:06:05.253Z,21.20
2023-04-27T08:08:32.483Z,21.00
2023-04-27T08:10:59.310Z,20.80
2023-04-27T08:13:26.192Z,20.60
2023-04-27T08:15:58.386Z,20.30
2023-04-27T08:18:26.276Z,20.30
2023-04-27T08:20:53.454Z,20.20
2023-04-27T08:23:20.604Z,20.00
2023-04-27T08:25:48.401Z,20.00
2023-04-27T08:28:15.630Z,20.00
2023-04-27T08:30:43.565Z,20.00
2023-04-27T08:33:10.937Z,20.00
2023-04-27T08:35:37.760Z,20.00
2023-04-27T08:38:04.594Z,19.90
2023-04-27T08:40:31.421Z,19.90
2023-04-27T08:43:00.034Z,19.80
2023-04-27T08:45:27.949Z,19.80
2023-04-27T08:47:54.838Z,19.80
2023-04-27T08:50:24.238Z,19.80
2023-04-27T08:52:52.350Z,19.80
2023-04-27T08:55:19.427Z,19.90
2023-04-27T08:57:56.934Z,19.90
2023-04-27T09:00:27.071Z,20.00
2023-04-27T09:02:54.189Z,20.10
2023-04-27T09:05:22.559Z,20.10
2023-04-27T09:08:05.533Z,20.20
2023-04-27T09:10:49.049Z,20.20
2023-04-27T09:13:16.287Z,20.20
2023-04-27T09:15:48.678Z,20.20
2023-04-27T09:18:21.974Z,20.30
2023-04-27T09:20:51.144Z,20.40
2023-04-27T09:23:33.743Z,20.40
2023-04-27T09:26:03.378Z,20.50
2023-04-27T09:28:31.989Z,20.60
2023-04-27T09:31:00.240Z,20.70
2023-04-27T09:33:27.922Z,20.80
2023-04-27T09:35:55.419Z,20.90
2023-04-27T09:38:23.488Z,20.90
2023-04-27T09:40:52.365Z,21.00
2023-04-27T09:43:19.510Z,21.00
2023-04-27T09:45:46.469Z,21.20
2023-04-27T09:48:13.914Z,21.20
2023-04-27T09:50:42.575Z,21.30
2023-04-27T09:53:23.207Z,21.30
2023-04-27T09:56:28.529Z,21.50
2023-04-27T09:59:41.789Z,21.60
2023-04-27T10:02:23.555Z,21.70
2023-04-27T10:05:10.386Z,21.80
2023-04-27T10:07:41.233Z,21.90
2023-04-27T10:10:20.444Z,22.00
2023-04-27T10:13:01.680Z,22.20
2023-04-27T10:15:30.148Z,22.50
2023-04-27T10:18:03.617Z,22.50
2023-04-27T10:20:37.543Z,22.50
2023-04-27T10:23:04.885Z,22.50
2023-04-27T10:25:42.032Z,22.50
2023-04-27T10:28:15.167Z,22.50
2023-04-27T10:30:46.452Z,22.40
2023-04-27T10:33:17.628Z,22.50
2023-04-27T10:35:55.912Z,22.40
2023-04-27T10:38:28.389Z,22.40
2023-04-27T10:41:03.447Z,22.50
2023-04-27T10:43:32.252Z,22.50
2023-04-27T10:46:15.753Z,22.60
2023-04-27T10:48:43.816Z,22.70
2023-04-27T10:51:15.662Z,22.80
2023-04-27T10:53:42.615Z,22.70
2023-04-27T10:56:10.390Z,22.70
2023-04-27T11:01:09.009Z,22.80
2023-04-27T11:03:36.706Z,22.90
2023-04-27T11:06:05.531Z,22.90
2023-04-27T11:08:34.116Z,22.90
2023-04-27T11:11:01.834Z,22.90
2023-04-27T11:13:28.891Z,23.00
2023-04-27T11:15:59.917Z,23.10
2023-04-27T11:18:31.693Z,23.00
2023-04-27T11:21:11.241Z,23.10
2023-04-27T11:23:39.462Z,23.10
2023-04-27T11:26:21.803Z,23.10
2023-04-27T11:29:05.508Z,23.20
2023-04-27T11:31:40.867Z,23.30
2023-04-27T11:34:08.475Z,23.50
2023-04-27T11:36:36.186Z,23.60
2023-04-27T11:39:06.482Z,23.80
2023-04-27T11:41:34.987Z,23.90
2023-04-27T11:44:07.467Z,24.00
2023-04-27T11:46:38.947Z,24.10
2023-04-27T11:49:08.940Z,24.20
2023-04-27T11:51:36.443Z,24.30
2023-04-27T11:54:07.323Z,24.40
2023-04-27T11:56:42.052Z,24.50
2023-04-27T11:59:23.226Z,24.60
2023-04-27T12:01:51.727Z,24.80
2023-04-27T12:04:18.980Z,24.70
2023-04-27T12:06:46.088Z,24.70
2023-04-27T12:09:13.108Z,24.80
2023-04-27T12:11:39.933Z,25.00
2023-04-27T12:14:07.296Z,24.90
2023-04-27T12:16:34.144Z,25.10
2023-04-27T12:19:01.646Z,25.00
2023-04-27T12:21:28.637Z,25.00
2023-04-27T12:23:55.852Z,25.00
2023-04-27T12:26:22.654Z,24.90
2023-04-27T12:28:49.509Z,24.90
2023-04-27T12:31:17.094Z,25.00
2023-04-27T12:33:43.896Z,24.90
2023-04-27T12:36:11.093Z,24.90
2023-04-27T12:38:37.922Z,24.80
2023-04-27T12:41:05.025Z,24.80
2023-04-27T12:43:32.406Z,24.80
2023-04-27T12:45:59.253Z,24.80
2023-04-27T12:48:26.469Z,24.90
2023-04-27T12:50:53.336Z,25.00
2023-04-27T12:53:21.775Z,25.00
2023-04-27T12:55:49.076Z,25.10
2023-04-27T12:58:15.948Z,25.20
2023-04-27T13:00:42.991Z,25.30
2023-04-27T13:03:10.247Z,25.30
2023-04-27T13:05:37.245Z,25.30
2023-04-27T13:08:13.048Z,25.10
2023-04-27T13:10:42.371Z,25.00
2023-04-27T13:13:09.359Z,24.90
2023-04-27T13:15:37.718Z,24.80
2023-04-27T13:18:06.556Z,24.50
2023-04-27T13:20:34.101Z,24.50
2023-04-27T13:23:01.053Z,24.50
2023-04-27T13:25:27.962Z,24.70
2023-04-27T13:27:54.810Z,24.90
2023-04-27T13:30:21.872Z,25.00
2023-04-27T13:32:48.694Z,25.10
2023-04-27T13:35:15.850Z,25.10
2023-04-27T13:37:42.891Z,25.10
2023-04-27T13:40:12.807Z,25.10
2023-04-27T13:42:40.377Z,25.10
2023-04-27T13:45:07.686Z,25.10
2023-04-27T13:47:37.303Z,25.30
2023-04-27T13:50:06.691Z,25.20
2023-04-27T13:52:35.458Z,25.20
2023-04-27T13:55:07.546Z,25.20
2023-04-27T13:57:34.707Z,25.20
2023-04-27T14:00:02.241Z,25.30
2023-04-27T14:02:30.013Z,25.30
2023-04-27T14:04:57.579Z,25.20
2023-04-27T14:07:24.419Z,25.10
2023-04-27T14:09:51.236Z,25.10
2023-04-27T14:12:18.107Z,25.00
2023-04-27T14:14:45.137Z,25.10
2023-04-27T14:17:12.019Z,25.10
2023-04-27T14:19:38.866Z,25.20
2023-04-27T14:22:06.401Z,25.20
2023-04-27T14:24:33.161Z,25.10
2023-04-27T14:27:00.003Z,25.00
2023-04-27T14:29:26.914Z,24.90
2023-04-27T14:31:53.795Z,24.80
2023-04-27T14:34:21.694Z,24.80
2023-04-27T14:36:48.798Z,24.70
2023-04-27T14:39:16.152Z,24.60
2023-04-27T14:41:43.192Z,24.40
2023-04-27T14:44:10.027Z,24.30
2023-04-27T14:46:37.177Z,24.30
2023-04-27T14:49:04.010Z,24.30
2023-04-27T14:51:32.498Z,24.30
2023-04-27T14:53:59.412Z,24.10
2023-04-27T14:56:26.346Z,24.10
2023-04-27T14:58:55.194Z,24.00
2023-04-27T15:01:24.986Z,24.00
2023-04-27T15:03:53.190Z,24.00
2023-04-27T15:06:21.928Z,23.90
2023-04-27T15:08:48.809Z,23.90
2023-04-27T15:11:16.303Z,23.90
2023-04-27T15:13:43.118Z,23.90
2023-04-27T15:16:10.023Z,24.00
2023-04-27T15:18:37.007Z,24.00
2023-04-27T15:21:04.316Z,24.00
2023-04-27T15:23:32.162Z,24.10
2023-04-27T15:25:58.966Z,24.10
2023-04-27T15:28:25.901Z,24.10
2023-04-27T15:30:52.792Z,24.10
2023-04-27T15:33:19.837Z,24.10
2023-04-27T15:35:46.678Z,24.00
2023-04-27T15:38:14.575Z,24.00
2023-04-27T15:40:41.814Z,23.90
2023-04-27T15:43:08.616Z,23.90
2023-04-27T15:45:35.496Z,23.80
2023-04-27T15:48:02.400Z,23.80
2023-04-27T15:50:29.396Z,23.80
2023-04-27T15:52:56.214Z,23.70
2023-04-27T15:55:23.013Z,23.60
2023-04-27T15:57:50.648Z,23.60
2023-04-27T16:00:19.032Z,23.60
2023-04-27T16:02:46.852Z,23.50
2023-04-27T16:05:14.443Z,23.50
2023-04-27T16:07:43.562Z,23.40
2023-04-27T16:10:11.697Z,23.40
2023-04-27T16:12:38.841Z,23.30
2023-04-27T16:15:08.451Z,23.30
2023-04-27T16:17:37.082Z,23.30
2023-04-27T16:20:07.989Z,23.10
2023-04-27T16:22:35.557Z,23.10
2023-04-27T16:25:03.785Z,23.00
2023-04-27T16:27:31.046Z,22.90
2023-04-27T16:29:57.843Z,22.90
2023-04-27T16:32:24.833Z,22.80
2023-04-27T16:34:51.791Z,22.60
2023-04-27T16:37:18.590Z,22.60
2023-04-27T16:39:45.694Z,22.60
2023-04-27T16:42:20.125Z,22.50
2023-04-27T16:44:47.493Z,22.50
2023-04-27T16:47:14.618Z,22.50
2023-04-27T16:49:45.085Z,22.40
2023-04-27T16:52:12.458Z,22.40
2023-04-27T16:54:39.233Z,22.30
2023-04-27T16:57:07.750Z,22.20
2023-04-27T16:59:34.736Z,22.10
2023-04-27T17:02:12.425Z,22.00
2023-04-27T17:04:43.682Z,21.90
2023-04-27T17:07:10.831Z,21.90
2023-04-27T17:09:37.912Z,21.80
2023-04-27T17:12:10.938Z,21.70
2023-04-27T17:14:38.810Z,21.60
2023-04-27T17:17:06.430Z,21.60
2023-04-27T17:19:33.304Z,21.60
2023-04-27T17:22:00.261Z,21.50
2023-04-27T17:24:27.138Z,21.50
2023-04-27T17:26:54.048Z,21.50
2023-04-27T17:29:21.731Z,21.40
2023-04-27T17:31:50.133Z,21.30
2023-04-27T17:34:17.035Z,21.30
2023-04-27T17:36:44.039Z,21.30
2023-04-27T17:39:12.985Z,21.20
2023-04-27T17:41:40.534Z,21.20
2023-04-27T17:44:07.331Z,21.20
2023-04-27T17:46:34.281Z,21.00
2023-04-27T17:49:01.512Z,21.10
2023-04-27T17:51:28.370Z,20.90
2023-04-27T17:53:55.151Z,20.90
2023-04-27T17:56:22.591Z,20.90
2023-04-27T17:58:49.428Z,20.90
2023-04-27T18:01:16.304Z,20.70
2023-04-27T18:03:43.381Z,20.80
2023-04-27T18:06:13.320Z,20.60
2023-04-27T18:08:40.250Z,20.60
2023-04-27T18:11:07.131Z,20.50
2023-04-27T18:13:34.371Z,20.50
2023-04-27T18:16:01.295Z,20.40
2023-04-27T18:18:28.580Z,20.40
2023-04-27T18:20:55.635Z,20.30
2023-04-27T18:23:22.666Z,20.30
2023-04-27T18:25:49.823Z,20.20
2023-04-27T18:28:16.752Z,20.20
2023-04-27T18:30:43.677Z,20.20
2023-04-27T18:33:10.701Z,20.20
2023-04-27T18:35:37.616Z,20.10
2023-04-27T18:38:04.543Z,20.10
2023-04-27T18:40:32.897Z,20.00
2023-04-27T18:42:59.750Z,20.00
2023-04-27T18:45:27.903Z,20.00
2023-04-27T18:47:54.807Z,19.90
2023-04-27T18:50:21.704Z,19.90
2023-04-27T18:52:48.600Z,19.80
2023-04-27T18:55:16.715Z,19.80
2023-04-27T18:57:43.717Z,19.70
2023-04-27T19:00:11.860Z,19.60
2023-04-27T19:02:39.150Z,19.60
2023-04-27T19:05:12.223Z,19.60
2023-04-27T19:07:40.743Z,19.50
2023-04-27T19:10:08.406Z,19.50
2023-04-27T19:12:35.964Z,19.40
2023-04-27T19:15:02.940Z,19.40
2023-04-27T19:17:30.057Z,19.40
2023-04-27T19:19:56.925Z,19.30
2023-04-27T19:22:24.036Z,19.20
2023-04-27T19:24:50.907Z,19.20
2023-04-27T19:27:17.829Z,19.20
2023-04-27T19:29:55.933Z,19.10
2023-04-27T19:32:26.860Z,19.10
2023-04-27T19:34:55.812Z,19.10
2023-04-27T19:37:23.284Z,19.10
2023-04-27T19:39:51.496Z,19.00
2023-04-27T19:42:18.373Z,19.00
2023-04-27T19:44:45.143Z,19.00
2023-04-27T19:47:12.036Z,19.00
2023-04-27T19:49:39.109Z,19.00
2023-04-27T19:52:06.837Z,18.90
2023-04-27T19:54:35.943Z,18.90
2023-04-27T19:57:03.956Z,18.80
2023-04-27T19:59:30.884Z,18.80
2023-04-27T20:01:57.788Z,18.90
2023-04-27T20:04:25.229Z,18.80
2023-04-27T20:06:53.038Z,18.80
2023-04-27T20:09:20.042Z,18.70
2023-04-27T20:11:46.885Z,18.70
2023-04-27T20:14:13.896Z,18.60
2023-04-27T20:16:41.020Z,18.70
2023-04-27T20:19:07.996Z,18.60
2023-04-27T20:21:34.865Z,18.60
2023-04-27T20:24:01.664Z,18.50
2023-04-27T20:26:28.645Z,18.50
2023-04-27T20:28:55.473Z,18.60
2023-04-27T20:31:22.267Z,18.40
2023-04-27T20:33:49.122Z,18.40
2023-04-27T20:36:18.142Z,18.40
2023-04-27T20:38:46.001Z,18.30
2023-04-27T20:41:12.964Z,18.30
2023-04-27T20:43:40.255Z,18.30
2023-04-27T20:46:11.701Z,18.20
2023-04-27T20:48:38.698Z,18.20
2023-04-27T20:51:05.826Z,18.10
2023-04-27T20:53:32.717Z,18.20
2023-04-27T20:55:59.589Z,18.20
2023-04-27T20:58:27.148Z,18.10
2023-04-27T21:00:54.098Z,18.00
2023-04-27T21:03:21.216Z,18.00
2023-04-27T21:05:49.283Z,17.90
2023-04-27T21:08:16.924Z,18.00
2023-04-27T21:10:44.528Z,17.90
2023-04-27T21:13:11.501Z,17.80
2023-04-27T21:15:38.653Z,17.90
2023-04-27T21:18:07.863Z,17.80
2023-04-27T21:20:36.228Z,17.70
2023-04-27T21:23:03.530Z,17.80
2023-04-27T21:25:30.563Z,17.70
2023-04-27T21:27:57.389Z,17.70
2023-04-27T21:30:24.493Z,17.60
2023-04-27T21:32:51.407Z,17.60
2023-04-27T21:35:18.393Z,17.50
2023-04-27T21:37:45.345Z,17.60
2023-04-27T21:40:12.385Z,17.50
2023-04-27T21:42:39.273Z,17.40
2023-04-27T21:45:06.644Z,17.40
2023-04-27T21:47:33.424Z,17.40
2023-04-27T21:50:00.238Z,17.40
2023-04-27T21:52:27.004Z,17.30
2023-04-27T21:54:53.860Z,17.30
2023-04-27T21:57:27.951Z,17.20
2023-04-27T21:59:55.177Z,17.20
2023-04-27T22:02:22.585Z,17.10
2023-04-27T22:04:51.278Z,17.20
2023-04-27T22:07:18.831Z,17.20
2023-04-27T22:09:46.007Z,17.10
2023-04-27T22:12:13.265Z,17.10
2023-04-27T22:14:41.831Z,17.10
2023-04-27T22:17:08.622Z,17.00
2023-04-27T22:19:36.101Z,17.00
2023-04-27T22:22:03.879Z,17.00
2023-04-27T22:24:31.388Z,16.90
2023-04-27T22:26:58.235Z,16.90
2023-04-27T22:29:25.214Z,16.90
2023-04-27T22:31:52.193Z,16.80
2023-04-27T22:34:19.414Z,16.80
2023-04-27T22:36:46.428Z,16.80
2023-04-27T22:39:13.284Z,16.80
2023-04-27T22:41:40.222Z,16.80
2023-04-27T22:44:07.071Z,16.80
2023-04-27T22:46:34.188Z,16.70
2023-04-27T22:49:01.517Z,16.70
2023-04-27T22:51:28.342Z,16.60
2023-04-27T22:53:55.146Z,16.60
2023-04-27T22:56:22.538Z,16.70
2023-04-27T22:58:49.429Z,16.60
2023-04-27T23:01:16.675Z,16.60
2023-04-27T23:03:43.995Z,16.60
2023-04-27T23:06:16.938Z,16.50
2023-04-27T23:08:46.997Z,16.50
2023-04-27T23:11:15.553Z,16.50
2023-04-27T23:13:42.534Z,16.40
2023-04-27T23:16:10.014Z,16.50
2023-04-27T23:18:37.048Z,16.40
2023-04-27T23:21:04.115Z,16.30
2023-04-27T23:23:31.094Z,16.40
2023-04-27T23:25:57.965Z,16.30
2023-04-27T23:28:24.787Z,16.40
2023-04-27T23:30:55.254Z,16.30
2023-04-27T23:33:22.331Z,16.30
2023-04-27T23:35:49.364Z,16.20
2023-04-27T23:38:16.236Z,16.20
2023-04-27T23:40:43.061Z,16.20
2023-04-27T23:43:09.907Z,16.20
2023-04-27T23:45:36.909Z,16.10
2023-04-27T23:48:04.065Z,16.10
2023-04-27T23:50:30.941Z,16.00
2023-04-27T23:52:57.987Z,16.10
2023-04-27T23:55:24.762Z,16.00
2023-04-27T23:57:54.492Z,16.00
